Time;durP1;ratioP1;P1;durP2;ratioP2;P2;SDS_P1;SDS_P2;PMS_P1;PMS_P2;Temp;Humidity;BMP_temperature;BMP_pressure;BME280_temperature;BME280_humidity;BME280_pressure;Samples;Min_cycle;Max_cycle;Signal;HPM_P1;HPM_P2
2021/05/20 00:00:20;;;;;;;10.70;6.15;;;;;;;8.44;81.71;101974.91;5032120;28;20045;-56
2021/05/20 00:02:47;;;;;;;8.45;5.22;;;;;;;8.36;81.83;101975.19;5032567;28;20051;-56
2021/05/20 00:05:16;;;;;;;12.60;6.20;;;;;;;8.35;81.42;101970.84;5032444;28;20120;-55
2021/05/20 00:07:44;;;;;;;9.77;5.95;;;;;;;8.31;81.43;101969.25;5032415;28;20049;-55
2021/05/20 00:10:12;;;;;;;11.48;6.75;;;;;;;8.33;81.53;101977.06;5031952;28;20053;-56
2021/05/20 00:12:39;;;;;;;10.38;6.78;;;;;;;8.32;81.82;101983.19;5047198;28;20064;-56
2021/05/20 00:15:07;;;;;;;11.38;6.65;;;;;;;8.30;81.43;101980.63;5032181;28;20144;-55
2021/05/20 00:17:34;;;;;;;11.77;6.78;;;;;;;8.29;81.53;101984.19;5030998;28;20049;-56
2021/05/20 00:20:01;;;;;;;11.75;7.18;;;;;;;8.22;82.61;101974.81;5032411;28;20472;-55
2021/05/20 00:22:31;;;;;;;10.43;6.45;;;;;;;8.15;82.23;101979.44;5030907;28;20042;-54
2021/05/20 00:25:00;;;;;;;11.50;6.82;;;;;;;8.13;82.64;101983.91;4999485;28;20053;-55
2021/05/20 00:27:28;;;;;;;12.02;7.50;;;;;;;8.07;82.81;101984.97;5031243;28;20140;-55
2021/05/20 00:29:55;;;;;;;12.02;6.80;;;;;;;8.06;82.71;101987.66;5030877;28;20392;-55
2021/05/20 00:32:23;;;;;;;12.50;8.07;;;;;;;7.99;83.85;101988.78;5030896;28;20052;-57
2021/05/20 00:34:51;;;;;;;13.82;9.57;;;;;;;7.98;84.26;101989.69;5030916;28;20079;-54
2021/05/20 00:37:18;;;;;;;16.98;8.95;;;;;;;7.91;85.77;101984.66;5064219;28;20144;-55
2021/05/20 00:39:45;;;;;;;15.70;9.35;;;;;;;7.82;85.15;101987.59;5031049;28;20408;-56
2021/05/20 00:42:12;;;;;;;13.27;9.07;;;;;;;7.85;85.06;101982.25;5030856;28;20064;-56
2021/05/20 00:44:53;;;;;;;15.13;9.20;;;;;;;7.84;85.19;101982.31;5031993;28;20128;-55
2021/05/20 00:47:29;;;;;;;14.32;9.10;;;;;;;7.79;84.76;101983.34;5030806;28;20041;-55
2021/05/20 00:49:57;;;;;;;15.57;9.40;;;;;;;7.77;85.32;101986.91;5032024;28;20061;-54
2021/05/20 00:52:24;;;;;;;15.65;10.90;;;;;;;7.72;85.50;101975.75;5014406;28;20546;-56
2021/05/20 00:54:54;;;;;;;16.85;10.23;;;;;;;7.65;86.14;101982.09;5031853;28;20050;-56
2021/05/20 00:57:21;;;;;;;17.60;10.90;;;;;;;7.66;86.24;101996.91;5014330;28;20141;-54
2021/05/20 00:59:48;;;;;;;17.73;10.73;;;;;;;7.71;85.76;101993.22;5031178;28;20060;-54
2021/05/20 01:02:16;;;;;;;13.88;9.88;;;;;;;7.72;85.40;101994.94;5034274;28;20061;-54
2021/05/20 01:04:42;;;;;;;15.55;10.38;;;;;;;7.80;85.21;101984.22;5034440;28;20056;-55
2021/05/20 01:07:09;;;;;;;15.20;10.30;;;;;;;7.74;85.35;101989.66;5034367;28;20051;-55
2021/05/20 01:09:37;;;;;;;16.25;11.05;;;;;;;7.76;84.85;101990.47;5035476;28;20083;-53
2021/05/20 01:12:07;;;;;;;18.00;10.60;;;;;;;7.72;85.02;101992.31;5035383;28;20064;-55
2021/05/20 01:14:52;;;;;;;16.00;10.82;;;;;;;7.76;83.94;101974.75;5034054;28;20064;-55
2021/05/20 01:17:19;;;;;;;17.15;10.48;;;;;;;7.77;83.86;101987.78;5035339;28;20060;-56
2021/05/20 01:19:47;;;;;;;15.68;10.60;;;;;;;7.77;83.71;101985.16;5034170;28;20038;-55
2021/05/20 01:22:14;;;;;;;14.75;9.85;;;;;;;7.72;84.06;101983.63;5035342;28;20061;-55
2021/05/20 01:24:41;;;;;;;16.40;10.57;;;;;;;7.71;83.66;101987.13;5017698;28;20049;-55
2021/05/20 01:27:09;;;;;;;15.05;10.52;;;;;;;7.64;83.56;101991.72;5035092;28;20508;-54
2021/05/20 01:29:39;;;;;;;16.05;10.65;;;;;;;7.65;84.20;101995.19;5035108;28;20041;-54
2021/05/20 01:32:06;;;;;;;16.23;11.15;;;;;;;7.63;84.05;101997.88;5033954;28;20057;-53
2021/05/20 01:34:34;;;;;;;16.70;11.15;;;;;;;7.56;84.36;101993.75;5033984;28;20052;-55
2021/05/20 01:37:06;;;;;;;19.05;12.40;;;;;;;7.51;84.67;102009.63;5035151;28;20480;-55
2021/05/20 01:39:33;;;;;;;18.38;12.40;;;;;;;7.56;83.78;101999.00;5033601;28;20037;-53
2021/05/20 01:42:00;;;;;;;21.23;13.68;;;;;;;7.50;84.45;101993.94;5034916;28;20041;-55
2021/05/20 01:44:27;;;;;;;21.27;14.23;;;;;;;7.51;84.63;101998.28;5033957;28;20492;-53
2021/05/20 01:46:54;;;;;;;22.73;15.25;;;;;;;7.49;84.76;101998.34;5035010;28;20049;-53
2021/05/20 01:49:21;;;;;;;21.60;14.88;;;;;;;7.44;84.86;102001.13;5034869;28;20459;-53
2021/05/20 01:51:48;;;;;;;22.73;15.80;;;;;;;7.50;84.15;102007.91;5034756;28;20051;-54
2021/05/20 01:54:14;;;;;;;22.75;15.50;;;;;;;7.50;84.35;102014.91;5035045;28;20068;-54
2021/05/20 01:56:41;;;;;;;22.80;15.80;;;;;;;7.38;84.82;102017.03;5033516;28;20064;-53
2021/05/20 01:59:09;;;;;;;22.55;15.20;;;;;;;7.38;84.35;102018.81;5034497;28;20056;-52
2021/05/20 02:01:36;;;;;;;24.92;16.58;;;;;;;7.34;85.05;102018.03;5034450;28;20136;-54
2021/05/20 02:04:03;;;;;;;25.15;17.98;;;;;;;7.28;85.16;102019.09;5017334;28;20041;-55
2021/05/20 02:06:30;;;;;;;24.40;16.92;;;;;;;7.31;84.71;102015.53;5034504;28;20041;-54
2021/05/20 02:08:57;;;;;;;25.13;17.15;;;;;;;7.26;84.87;102018.28;5033610;28;20100;-53
2021/05/20 02:11:24;;;;;;;26.52;18.40;;;;;;;7.26;85.47;102017.44;5033771;28;20050;-55
2021/05/20 02:13:50;;;;;;;29.80;18.73;;;;;;;7.18;85.69;102020.28;5032944;28;20046;-53
2021/05/20 02:16:17;;;;;;;29.27;18.80;;;;;;;7.17;85.85;102022.94;5033326;28;20489;-54
2021/05/20 02:18:44;;;;;;;29.15;19.70;;;;;;;7.18;86.29;102022.91;5034360;28;20111;-53
2021/05/20 02:21:11;;;;;;;30.50;20.25;;;;;;;7.13;85.80;102027.44;5032874;28;20404;-54
2021/05/20 02:23:38;;;;;;;29.48;19.98;;;;;;;7.12;85.85;102023.13;5034094;28;20041;-55
2021/05/20 02:26:05;;;;;;;34.13;21.98;;;;;;;7.10;86.59;102017.06;5032947;28;20033;-55
2021/05/20 02:28:32;;;;;;;31.88;20.55;;;;;;;7.04;86.06;102012.88;5016536;28;20536;-54
2021/05/20 02:31:00;;;;;;;34.10;22.65;;;;;;;7.10;87.85;102025.78;5034146;28;20103;-55
2021/05/20 02:33:27;;;;;;;39.10;24.08;;;;;;;7.08;88.38;102031.97;5034139;28;20045;-55
2021/05/20 02:35:54;;;;;;;35.88;22.80;;;;;;;7.11;88.04;102031.84;5032710;28;20504;-53
2021/05/20 02:38:20;;;;;;;37.85;23.88;;;;;;;7.09;88.04;102026.69;5032730;28;20111;-55
2021/05/20 02:40:47;;;;;;;36.92;23.35;;;;;;;7.14;87.83;102026.53;5032811;28;20506;-53
2021/05/20 02:43:14;;;;;;;35.17;21.75;;;;;;;7.17;87.62;102025.56;5033958;28;20522;-53
2021/05/20 02:45:41;;;;;;;41.65;24.80;;;;;;;7.13;88.39;102024.84;5032799;28;20508;-56
2021/05/20 02:48:08;;;;;;;39.95;23.70;;;;;;;7.12;88.24;102030.97;5065518;28;20444;-53
2021/05/20 02:50:35;;;;;;;42.78;23.95;;;;;;;7.19;88.62;102027.22;5033503;28;20049;-54
2021/05/20 02:53:02;;;;;;;39.47;23.55;;;;;;;7.20;87.73;102031.56;5033842;28;20041;-54
2021/05/20 02:55:29;;;;;;;41.63;24.88;;;;;;;7.22;88.23;102026.28;5033715;28;20085;-55
2021/05/20 02:58:00;;;;;;;43.45;24.80;;;;;;;7.25;88.31;102023.56;5032462;28;20059;-53
2021/05/20 03:00:33;;;;;;;45.00;25.95;;;;;;;7.23;89.06;102028.84;5065508;28;20492;-54
2021/05/20 03:03:01;;;;;;;48.17;27.30;;;;;;;7.25;89.82;102028.78;5033512;28;20052;-53
2021/05/20 03:05:30;;;;;;;48.90;26.20;;;;;;;7.28;89.42;102031.34;5033423;28;20052;-53
2021/05/20 03:07:57;;;;;;;55.90;26.58;;;;;;;7.29;91.52;102040.88;5032500;28;20080;-53
2021/05/20 03:10:24;;;;;;;55.38;27.08;;;;;;;7.26;91.98;102033.97;5033123;28;20056;-52
2021/05/20 03:12:51;;;;;;;59.35;24.58;;;;;;;7.30;92.36;102031.28;5031495;28;20060;-52
2021/05/20 03:15:18;;;;;;;55.30;26.02;;;;;;;7.36;91.67;102026.72;5031995;28;20052;-57
2021/05/20 03:17:45;;;;;;;53.08;25.75;;;;;;;7.41;91.54;102027.38;5015797;28;20048;-55
2021/05/20 03:20:14;;;;;;;55.38;26.83;;;;;;;7.43;91.73;102019.47;5031932;28;20473;-54
2021/05/20 03:22:40;;;;;;;55.38;25.48;;;;;;;7.40;92.50;102019.59;5032800;28;20373;-54
2021/05/20 03:25:08;;;;;;;61.75;25.40;;;;;;;7.42;92.08;102030.88;5032141;28;20124;-54
2021/05/20 03:27:35;;;;;;;62.20;28.00;;;;;;;7.46;91.96;102029.88;5033064;28;20102;-52
2021/05/20 03:30:07;;;;;;;55.28;25.45;;;;;;;7.45;91.83;102029.00;5031773;28;20076;-54
2021/05/20 03:32:34;;;;;;;54.90;25.67;;;;;;;7.51;91.60;102016.63;5031782;28;20045;-55
2021/05/20 03:35:01;;;;;;;63.85;25.85;;;;;;;7.51;92.38;102014.88;5033105;28;20065;-52
2021/05/20 03:37:29;;;;;;;62.03;24.33;;;;;;;7.59;91.94;102019.81;5032762;28;20377;-54
2021/05/20 03:39:56;;;;;;;58.05;25.00;;;;;;;7.60;92.10;102029.41;5032777;28;20057;-53
2021/05/20 03:42:23;;;;;;;58.63;22.70;;;;;;;7.65;92.00;102026.63;5031402;28;20508;-54
2021/05/20 03:44:50;;;;;;;50.33;22.52;;;;;;;7.66;91.71;102017.84;5032491;28;20107;-52
2021/05/20 03:47:17;;;;;;;48.05;22.45;;;;;;;7.68;91.86;102018.69;5032717;28;20072;-54
2021/05/20 03:49:44;;;;;;;46.95;21.23;;;;;;;7.73;91.29;102028.09;5014820;28;20053;-53
2021/05/20 03:52:10;;;;;;;49.05;21.02;;;;;;;7.79;91.49;102027.00;5032375;28;20056;-55
2021/05/20 03:54:42;;;;;;;43.35;20.95;;;;;;;7.80;91.29;102023.50;5032832;28;20548;-53
2021/05/20 03:57:10;;;;;;;41.92;19.75;;;;;;;7.83;90.83;102030.38;5064349;28;20049;-53
2021/05/20 03:59:36;;;;;;;40.90;18.73;;;;;;;7.84;90.90;102030.34;5032309;28;20048;-55
2021/05/20 04:02:04;;;;;;;43.30;20.20;;;;;;;7.89;90.44;102030.16;5032604;28;20045;-55
2021/05/20 04:04:31;;;;;;;40.85;18.98;;;;;;;7.92;90.68;102023.06;5032232;28;20143;-54
2021/05/20 04:06:57;;;;;;;41.88;19.80;;;;;;;7.93;90.32;102022.16;5030875;28;20060;-52
2021/05/20 04:09:24;;;;;;;36.97;17.73;;;;;;;7.92;90.04;102032.66;5046948;28;20076;-55
2021/05/20 04:11:51;;;;;;;38.88;17.20;;;;;;;7.93;90.24;102022.16;5030634;28;20132;-55
2021/05/20 04:14:18;;;;;;;42.28;19.23;;;;;;;7.96;90.02;102034.28;5032112;28;20057;-52
2021/05/20 04:16:45;;;;;;;42.35;19.42;;;;;;;8.02;89.84;102030.59;5032244;28;20053;-54
2021/05/20 04:19:13;;;;;;;42.70;18.88;;;;;;;7.99;90.51;102031.56;5031050;28;20526;-53
2021/05/20 04:21:40;;;;;;;38.70;18.95;;;;;;;8.00;89.76;102033.25;5031977;28;20076;-55
2021/05/20 04:24:08;;;;;;;38.00;19.35;;;;;;;8.04;89.64;102034.84;5032468;28;20530;-56
2021/05/20 04:26:35;;;;;;;41.78;20.33;;;;;;;8.07;89.20;102031.28;5030725;28;20492;-55
2021/05/20 04:29:02;;;;;;;33.95;17.70;;;;;;;8.08;89.29;102025.97;5030864;28;20503;-55
2021/05/20 04:31:32;;;;;;;34.67;17.58;;;;;;;8.09;88.78;102034.69;5030991;28;20049;-54
2021/05/20 04:33:58;;;;;;;38.72;18.83;;;;;;;8.12;88.82;102035.44;5014496;28;20053;-54
2021/05/20 04:36:25;;;;;;;37.00;18.20;;;;;;;8.12;88.51;102042.44;5035357;28;20049;-55
2021/05/20 04:38:52;;;;;;;37.05;17.90;;;;;;;8.20;88.53;102039.56;5034850;28;20079;-55
2021/05/20 04:41:19;;;;;;;36.88;18.25;;;;;;;8.22;88.44;102046.47;5034736;28;20055;-56
2021/05/20 04:43:46;;;;;;;38.30;19.20;;;;;;;8.19;88.65;102051.78;5035018;28;20045;-55
2021/05/20 04:46:13;;;;;;;34.53;17.95;;;;;;;8.22;88.21;102056.94;5034829;28;20053;-55
2021/05/20 04:48:40;;;;;;;31.73;17.50;;;;;;;8.25;88.12;102055.97;5034791;28;20463;-55
2021/05/20 04:51:07;;;;;;;32.40;17.75;;;;;;;8.25;88.39;102053.38;5036096;28;20046;-54
2021/05/20 04:53:35;;;;;;;30.65;16.10;;;;;;;8.31;88.25;102057.53;5036043;28;20057;-55
2021/05/20 04:56:03;;;;;;;30.27;16.85;;;;;;;8.37;87.69;102062.53;5036162;28;20049;-55
2021/05/20 04:58:30;;;;;;;29.73;15.38;;;;;;;8.35;87.12;102064.38;5034630;28;20176;-52
2021/05/20 05:00:57;;;;;;;30.23;16.38;;;;;;;8.33;87.31;102061.81;5035724;28;20062;-54
2021/05/20 05:03:23;;;;;;;32.53;16.40;;;;;;;8.35;87.72;102069.59;5035603;28;20049;-54
2021/05/20 05:05:51;;;;;;;29.30;15.73;;;;;;;8.40;87.58;102067.69;5035490;28;20049;-54
2021/05/20 05:08:18;;;;;;;32.30;17.90;;;;;;;8.41;87.93;102061.50;5035541;28;20508;-56
2021/05/20 05:10:45;;;;;;;31.15;16.80;;;;;;;8.44;87.47;102069.28;5034412;28;20067;-53
2021/05/20 05:13:12;;;;;;;34.22;17.20;;;;;;;8.41;87.40;102065.00;5035363;28;20049;-55
2021/05/20 05:15:39;;;;;;;28.52;16.95;;;;;;;8.45;87.40;102060.50;5035423;28;20136;-55
2021/05/20 05:18:05;;;;;;;29.45;16.95;;;;;;;8.50;86.99;102058.59;5034202;28;20054;-55
2021/05/20 05:20:32;;;;;;;29.17;16.98;;;;;;;8.51;87.47;102054.19;5033898;28;20136;-55
2021/05/20 05:22:59;;;;;;;28.63;16.90;;;;;;;8.53;87.04;102047.97;5034028;28;20072;-55
2021/05/20 05:25:26;;;;;;;30.25;17.23;;;;;;;8.70;86.71;102049.09;5033891;28;20462;-55
2021/05/20 05:27:53;;;;;;;33.72;17.58;;;;;;;8.72;86.70;102050.75;5035199;28;20065;-56
2021/05/20 05:30:20;;;;;;;29.00;17.52;;;;;;;8.74;86.56;102048.94;5033969;28;20056;-54
2021/05/20 05:32:47;;;;;;;32.63;18.38;;;;;;;8.71;86.32;102051.69;5035091;28;20049;-54
2021/05/20 05:35:14;;;;;;;29.80;17.95;;;;;;;8.69;86.24;102056.13;5034971;28;20060;-56
2021/05/20 05:37:41;;;;;;;31.83;17.77;;;;;;;8.73;85.94;102057.72;5034161;28;20395;-56
2021/05/20 05:40:08;;;;;;;30.85;17.00;;;;;;;8.81;86.01;102054.81;5035372;28;20045;-57
2021/05/20 05:42:35;;;;;;;28.50;17.42;;;;;;;8.86;86.15;102060.75;5034794;28;20133;-55
2021/05/20 05:45:04;;;;;;;32.13;18.63;;;;;;;8.90;85.29;102058.84;5034082;28;20041;-55
2021/05/20 05:47:31;;;;;;;27.05;16.02;;;;;;;8.93;85.33;102070.06;5033803;28;20045;-57
2021/05/20 05:50:06;;;;;;;27.13;15.68;;;;;;;8.98;85.20;102072.50;5050246;28;20053;-56
2021/05/20 05:52:33;;;;;;;29.33;16.77;;;;;;;9.02;85.54;102074.09;5033459;28;20535;-55
2021/05/20 05:55:00;;;;;;;30.42;17.85;;;;;;;9.05;85.65;102079.25;5033640;28;20034;-55
2021/05/20 05:57:27;;;;;;;26.67;15.70;;;;;;;9.09;84.75;102083.47;5034486;28;20099;-54
2021/05/20 05:59:54;;;;;;;29.50;18.13;;;;;;;9.10;84.82;102076.44;5033335;28;20050;-55
2021/05/20 06:02:22;;;;;;;27.45;16.77;;;;;;;9.17;84.92;102077.91;5034628;28;20048;-57
2021/05/20 06:04:52;;;;;;;29.10;16.83;;;;;;;9.25;84.64;102078.44;5033209;28;20514;-57
2021/05/20 06:07:19;;;;;;;28.80;17.27;;;;;;;9.17;85.40;102064.78;5034369;28;20046;-55
2021/05/20 06:09:47;;;;;;;28.98;17.17;;;;;;;9.24;84.57;102068.88;5033712;28;20053;-57
2021/05/20 06:12:14;;;;;;;29.75;19.00;;;;;;;9.24;84.74;102070.63;5033183;28;20399;-55
2021/05/20 06:14:41;;;;;;;28.95;16.15;;;;;;;9.34;83.89;102057.97;5016695;28;20452;-56
2021/05/20 06:17:08;;;;;;;27.00;15.60;;;;;;;9.32;84.35;102059.84;5034572;28;20053;-56
2021/05/20 06:19:35;;;;;;;28.48;15.88;;;;;;;9.40;84.52;102065.63;5034128;28;20037;-56
2021/05/20 06:22:02;;;;;;;28.17;16.40;;;;;;;9.32;83.19;102059.84;5016742;28;20041;-57
2021/05/20 06:24:29;;;;;;;27.42;15.60;;;;;;;9.32;83.25;102076.44;5034050;28;20427;-56
2021/05/20 06:26:56;;;;;;;25.55;16.00;;;;;;;9.40;83.41;102068.25;5034491;28;20053;-56
2021/05/20 06:29:23;;;;;;;28.05;16.45;;;;;;;9.51;83.98;102076.53;5033830;28;20408;-57
2021/05/20 06:31:49;;;;;;;30.70;16.48;;;;;;;9.53;84.00;102079.97;5032770;28;20045;-57
2021/05/20 06:34:16;;;;;;;35.58;18.92;;;;;;;9.64;83.71;102087.41;5033989;28;20057;-57
2021/05/20 06:36:44;;;;;;;29.45;17.92;;;;;;;9.72;84.13;102080.06;5032806;28;20045;-57
2021/05/20 06:39:11;;;;;;;34.38;16.75;;;;;;;9.84;82.65;102076.03;5033829;28;20121;-57
2021/05/20 06:41:38;;;;;;;32.15;17.52;;;;;;;9.73;82.27;102086.16;5033771;28;20045;-56
2021/05/20 06:44:05;;;;;;;30.88;16.15;;;;;;;9.92;81.95;102087.06;5032463;28;20041;-57
2021/05/20 06:46:34;;;;;;;37.97;17.60;;;;;;;9.85;81.89;102093.53;5033690;28;20045;-58
2021/05/20 06:49:01;;;;;;;35.53;18.20;;;;;;;9.91;82.90;102093.28;5033924;28;20602;-57
2021/05/20 06:51:28;;;;;;;35.90;17.48;;;;;;;9.98;82.11;102086.84;5032431;28;20041;-56
2021/05/20 06:53:55;;;;;;;35.78;18.73;;;;;;;10.13;80.92;102095.00;5033751;28;20049;-56
2021/05/20 06:56:24;;;;;;;32.47;17.38;;;;;;;10.15;81.03;102095.75;5032101;28;20047;-57
2021/05/20 07:01:36;;;;;;;37.65;18.50;;;;;;;10.28;80.75;102089.03;5033338;28;20053;-57
2021/05/20 07:04:04;;;;;;;36.47;18.58;;;;;;;10.36;80.66;102099.28;5033517;28;20049;-57
2021/05/20 07:06:31;;;;;;;38.30;19.63;;;;;;;10.51;79.22;102091.59;5033396;28;20052;-55
2021/05/20 07:09:09;;;;;;;41.65;20.77;;;;;;;10.62;79.21;102091.97;5033297;28;20518;-55
2021/05/20 07:11:36;;;;;;;42.28;20.60;;;;;;;10.74;79.24;102080.88;5032366;28;20069;-56
2021/05/20 07:14:03;;;;;;;40.22;20.17;;;;;;;10.87;78.42;102081.16;5033047;28;20111;-56
2021/05/20 07:16:30;;;;;;;44.30;21.85;;;;;;;11.02;78.51;102095.41;5015404;28;20053;-54
2021/05/20 07:18:57;;;;;;;38.80;21.00;;;;;;;11.03;77.83;102094.47;5033232;28;20052;-57
2021/05/20 07:21:24;;;;;;;42.35;21.83;;;;;;;11.20;76.49;102098.09;5032877;28;20544;-57
2021/05/20 07:23:51;;;;;;;41.30;22.27;;;;;;;11.29;77.51;102101.13;5033044;28;20124;-58
2021/05/20 07:26:17;;;;;;;40.42;21.75;;;;;;;11.43;76.78;102095.19;5033032;28;20037;-58
2021/05/20 07:28:44;;;;;;;42.33;22.05;;;;;;;11.43;75.87;102097.81;5032922;28;20049;-57
2021/05/20 07:31:11;;;;;;;42.78;21.85;;;;;;;11.45;75.81;102100.38;5032882;28;20050;-53
2021/05/20 07:33:38;;;;;;;43.60;22.25;;;;;;;11.50;75.86;102104.47;5032697;28;20049;-56
2021/05/20 07:36:06;;;;;;;47.35;22.63;;;;;;;11.46;75.77;102104.72;5032730;28;20052;-56
2021/05/20 07:38:33;;;;;;;42.38;22.95;;;;;;;11.52;75.76;102104.44;5032621;28;20484;-57
2021/05/20 07:41:00;;;;;;;50.60;24.65;;;;;;;11.47;75.51;102101.16;5032604;28;20571;-56
2021/05/20 07:43:27;;;;;;;46.75;25.75;;;;;;;11.54;75.03;102105.19;5032600;28;20063;-57
2021/05/20 07:45:54;;;;;;;46.90;27.85;;;;;;;11.63;75.22;102096.84;5031320;28;20050;-56
2021/05/20 07:48:21;;;;;;;47.65;26.25;;;;;;;11.76;74.95;102097.06;5031458;28;20053;-57
2021/05/20 07:50:48;;;;;;;50.30;28.15;;;;;;;11.80;74.24;102097.78;5032794;28;20116;-56
2021/05/20 07:53:14;;;;;;;44.00;26.63;;;;;;;11.89;74.73;102096.44;5032686;28;20055;-56
2021/05/20 07:55:41;;;;;;;49.75;27.27;;;;;;;12.03;73.51;102088.72;5031126;28;20060;-57
2021/05/20 07:58:08;;;;;;;48.20;27.08;;;;;;;12.06;74.34;102095.63;5031432;28;20399;-58
2021/05/20 08:00:35;;;;;;;45.63;27.98;;;;;;;12.17;73.04;102085.38;5031195;28;20057;-56
2021/05/20 08:03:12;;;;;;;47.15;27.77;;;;;;;12.36;72.04;102092.31;5031172;28;20038;-57
2021/05/20 08:05:43;;;;;;;42.22;25.95;;;;;;;12.45;71.54;102092.69;5032644;28;20377;-57
2021/05/20 08:10:55;;;;;;;49.38;27.13;;;;;;;12.63;72.34;102092.63;5031636;28;20045;-57
2021/05/20 08:13:22;;;;;;;44.30;26.30;;;;;;;12.78;71.94;102090.94;5031954;28;20049;-56
2021/05/20 08:15:49;;;;;;;45.50;24.92;;;;;;;12.83;71.30;102094.19;5032028;28;20050;-58
2021/05/20 08:18:16;;;;;;;42.15;24.25;;;;;;;12.95;69.98;102104.09;5032178;28;20124;-57
2021/05/20 08:20:43;;;;;;;41.05;22.58;;;;;;;13.18;68.96;102102.81;5031114;28;20409;-57
2021/05/20 08:23:10;;;;;;;40.75;22.63;;;;;;;13.43;67.18;102092.63;5031017;28;20057;-58
2021/05/20 08:25:37;;;;;;;41.67;22.08;;;;;;;13.50;66.13;102089.56;5032092;28;20053;-57
2021/05/20 08:28:04;;;;;;;41.22;22.23;;;;;;;13.52;68.00;102076.25;5064020;28;20049;-58
2021/05/20 08:30:31;;;;;;;41.03;22.50;;;;;;;13.49;67.00;102073.78;5014573;28;20049;-58
2021/05/20 08:32:58;;;;;;;41.80;22.88;;;;;;;13.53;67.56;102075.31;5030865;28;20064;-57
2021/05/20 08:35:25;;;;;;;41.28;23.83;;;;;;;13.60;66.71;102071.38;5014437;28;20123;-58
2021/05/20 08:37:52;;;;;;;38.35;21.73;;;;;;;13.66;67.03;102076.31;5032527;28;20049;-58
2021/05/20 08:40:19;;;;;;;38.78;21.60;;;;;;;13.69;66.00;102070.84;5030821;28;20053;-57
2021/05/20 08:42:46;;;;;;;35.90;20.60;;;;;;;13.75;65.27;102071.44;5031772;28;20103;-58
2021/05/20 08:45:18;;;;;;;36.50;21.38;;;;;;;13.60;65.60;102062.59;5031996;28;20737;-58
2021/05/20 08:47:46;;;;;;;38.05;21.40;;;;;;;13.42;66.13;102056.59;5030900;28;20049;-58
2021/05/20 08:50:14;;;;;;;36.25;20.95;;;;;;;13.42;67.16;102060.09;5030723;28;20104;-57
2021/05/20 08:52:42;;;;;;;38.63;20.95;;;;;;;13.50;66.42;102064.94;5031846;28;20076;-57
2021/05/20 08:55:15;;;;;;;39.13;21.65;;;;;;;13.75;65.59;102055.56;5031993;28;20044;-58
2021/05/20 08:57:42;;;;;;;37.72;20.35;;;;;;;13.95;64.80;102054.38;5031855;28;20045;-57
2021/05/20 09:00:15;;;;;;;32.55;21.00;;;;;;;14.15;64.83;102058.44;5030660;28;20105;-58
2021/05/20 09:02:42;;;;;;;34.95;20.20;;;;;;;14.17;63.77;102056.56;5030726;28;20045;-57
2021/05/20 09:05:11;;;;;;;33.38;18.45;;;;;;;14.42;64.01;102058.53;5030545;28;20048;-58
2021/05/20 09:07:40;;;;;;;36.00;20.20;;;;;;;14.43;62.42;102048.81;5030399;28;20091;-58
2021/05/20 09:10:22;;;;;;;34.00;19.52;;;;;;;14.61;62.50;102057.38;5031729;28;20531;-57
2021/05/20 09:12:54;;;;;;;34.65;20.45;;;;;;;14.60;61.66;102048.59;5031766;28;20061;-57
2021/05/20 09:15:26;;;;;;;36.30;20.58;;;;;;;14.59;62.25;102046.03;5030322;28;20045;-57
2021/05/20 09:17:54;;;;;;;33.30;20.53;;;;;;;14.43;62.46;102046.16;5030643;28;20559;-58
2021/05/20 09:20:27;;;;;;;36.40;21.90;;;;;;;14.42;63.84;102047.09;5014091;28;20511;-57
2021/05/20 09:23:28;;;;;;;33.35;20.48;;;;;;;14.43;63.92;102051.47;5035299;28;20038;-58
2021/05/20 09:26:09;;;;;;;31.13;20.20;;;;;;;14.60;61.34;102048.59;5035357;28;20050;-57
2021/05/20 09:28:41;;;;;;;31.25;20.50;;;;;;;14.60;62.35;102053.91;5033930;28;20056;-58
2021/05/20 09:31:09;;;;;;;29.77;18.77;;;;;;;14.68;61.44;102054.28;5035306;28;20048;-57
2021/05/20 09:33:36;;;;;;;28.30;18.73;;;;;;;14.46;62.42;102049.44;5035165;28;20377;-57
2021/05/20 09:36:04;;;;;;;28.23;18.70;;;;;;;14.60;62.23;102056.56;5035212;28;20073;-56
2021/05/20 09:38:36;;;;;;;28.92;17.85;;;;;;;14.97;61.07;102056.88;5034836;28;20045;-57
2021/05/20 09:41:04;;;;;;;25.38;17.70;;;;;;;15.24;60.00;102058.66;5035137;28;20080;-58
2021/05/20 09:43:34;;;;;;;27.05;17.23;;;;;;;15.27;59.38;102060.25;5035087;28;20073;-58
2021/05/20 09:46:03;;;;;;;24.80;16.02;;;;;;;15.00;59.78;102056.66;5035015;28;20076;-58
2021/05/20 09:48:36;;;;;;;23.75;15.90;;;;;;;15.03;60.78;102052.97;5033827;28;20504;-57
2021/05/20 09:51:04;;;;;;;21.73;14.97;;;;;;;14.96;60.17;102057.81;5033632;28;20046;-57
2021/05/20 09:53:48;;;;;;;22.60;14.55;;;;;;;15.13;59.60;102059.34;5034947;28;20295;-57
2021/05/20 09:56:15;;;;;;;20.45;13.32;;;;;;;15.24;59.65;102045.41;5035017;28;20049;-58
2021/05/20 09:58:53;;;;;;;19.98;12.18;;;;;;;15.48;58.04;102044.75;5033355;28;20499;-58
2021/05/20 10:01:20;;;;;;;18.65;11.65;;;;;;;15.63;58.56;102043.69;5034552;28;20139;-57
2021/05/20 10:03:57;;;;;;;18.55;12.85;;;;;;;15.76;59.27;102051.69;5034468;28;20050;-57
2021/05/20 10:06:43;;;;;;;21.17;12.77;;;;;;;15.67;58.49;102052.31;5034291;28;20064;-57
2021/05/20 10:09:12;;;;;;;17.92;12.60;;;;;;;15.78;58.72;102040.97;5034396;28;20416;-59
2021/05/20 10:11:41;;;;;;;18.42;12.35;;;;;;;15.99;56.76;102041.31;5034384;28;20386;-58
2021/05/20 10:14:08;;;;;;;19.25;12.57;;;;;;;15.83;56.91;102041.53;5034254;28;20057;-58
2021/05/20 10:16:39;;;;;;;19.95;13.85;;;;;;;15.97;55.84;102035.28;5032976;28;20420;-58
2021/05/20 10:19:07;;;;;;;19.13;13.23;;;;;;;15.83;55.42;102025.63;5033295;28;20045;-58
2021/05/20 10:21:34;;;;;;;17.40;12.93;;;;;;;16.02;56.48;102028.69;5034325;28;20067;-57
2021/05/20 10:24:01;;;;;;;22.05;13.82;;;;;;;16.26;56.66;102019.97;5034463;28;20087;-58
2021/05/20 10:26:28;;;;;;;21.85;14.60;;;;;;;16.31;56.04;102012.53;5032735;28;20566;-57
2021/05/20 10:28:55;;;;;;;23.33;15.13;;;;;;;16.28;55.43;102011.88;5066006;28;20111;-58
2021/05/20 10:31:22;;;;;;;20.98;14.95;;;;;;;16.30;56.22;102010.81;5032822;28;20120;-58
2021/05/20 10:33:49;;;;;;;19.00;13.73;;;;;;;16.35;55.79;101995.41;5032377;28;20045;-60
2021/05/20 10:36:24;;;;;;;16.88;11.70;;;;;;;16.57;54.14;101996.53;5033977;28;20058;-57
2021/05/20 10:38:50;;;;;;;17.42;12.02;;;;;;;16.76;53.79;101988.06;5033930;28;20056;-57
2021/05/20 10:41:26;;;;;;;16.73;11.52;;;;;;;16.89;53.76;101980.94;5032708;28;20061;-58
2021/05/20 10:44:02;;;;;;;17.45;12.23;;;;;;;17.10;52.83;101982.06;5033735;28;20042;-58
2021/05/20 10:46:29;;;;;;;14.70;11.35;;;;;;;17.40;53.76;101984.25;5033757;28;20729;-58
2021/05/20 10:48:57;;;;;;;17.80;12.75;;;;;;;17.40;51.71;101974.44;5032637;28;20053;-57
2021/05/20 10:51:26;;;;;;;16.20;11.73;;;;;;;17.60;53.39;101966.78;5033608;28;20048;-57
2021/05/20 10:53:55;;;;;;;17.95;12.50;;;;;;;17.58;51.05;101966.03;5033972;28;20040;-58
2021/05/20 10:56:22;;;;;;;15.80;12.13;;;;;;;17.44;51.15;101964.44;5032189;28;20048;-57
2021/05/20 10:58:50;;;;;;;18.70;12.25;;;;;;;17.47;51.96;101966.84;5033387;28;20107;-57
2021/05/20 11:01:20;;;;;;;18.38;12.43;;;;;;;17.53;51.76;101960.22;5032246;28;20049;-59
2021/05/20 11:03:52;;;;;;;19.65;13.10;;;;;;;18.08;51.60;101965.72;5033725;28;20432;-57
2021/05/20 11:06:21;;;;;;;20.17;14.55;;;;;;;18.02;51.02;101959.06;5033336;28;20081;-58
2021/05/20 11:08:48;;;;;;;18.63;13.07;;;;;;;18.49;49.77;101952.72;5032114;28;20444;-59
2021/05/20 11:11:38;;;;;;;18.23;13.00;;;;;;;18.89;49.68;101942.28;5033583;28;20056;-59
2021/05/20 11:14:07;;;;;;;18.55;14.20;;;;;;;19.40;48.19;101943.38;5015114;28;20046;-58
2021/05/20 11:16:35;;;;;;;17.95;13.20;;;;;;;19.13;48.12;101937.69;5031790;28;20396;-57
2021/05/20 11:19:23;;;;;;;18.88;13.38;;;;;;;18.57;48.70;101936.97;5031892;28;20049;-57
2021/05/20 11:22:02;;;;;;;19.80;14.27;;;;;;;18.66;49.20;101930.84;5031817;28;20052;-57
2021/05/20 11:24:31;;;;;;;19.25;14.32;;;;;;;18.45;49.81;101916.63;5033022;28;20059;-57